sensor_id;sensor_type;location;lat;lon;timestamp;P1;durP1;ratioP1;P2;durP2;ratioP2
55718;SDS011;41623;46.104;19.656;2023-01-20T00:02:06;3.85;;;2.80;;
55718;SDS011;41623;46.104;19.656;2023-01-20T00:04:32;6.70;;;4.10;;
55718;SDS011;41623;46.104;19.656;2023-01-20T00:06:58;6.40;;;4.07;;
55718;SDS011;41623;46.104;19.656;2023-01-20T00:09:25;8.20;;;4.82;;
55718;SDS011;41623;46.104;19.656;2023-01-20T00:11:51;7.10;;;3.90;;
55718;SDS011;41623;46.104;19.656;2023-01-20T00:14:17;12.43;;;6.90;;
55718;SDS011;41623;46.104;19.656;2023-01-20T00:16:43;15.65;;;10.55;;
55718;SDS011;41623;46.104;19.656;2023-01-20T00:19:11;18.88;;;11.45;;
55718;SDS011;41623;46.104;19.656;2023-01-20T00:21:38;12.75;;;8.10;;
55718;SDS011;41623;46.104;19.656;2023-01-20T00:24:04;11.18;;;6.25;;
55718;SDS011;41623;46.104;19.656;2023-01-20T00:26:30;10.80;;;5.63;;
55718;SDS011;41623;46.104;19.656;2023-01-20T00:28:56;5.13;;;3.85;;
55718;SDS011;41623;46.104;19.656;2023-01-20T00:31:26;8.48;;;4.18;;
55718;SDS011;41623;46.104;19.656;2023-01-20T00:33:53;9.48;;;5.10;;
55718;SDS011;41623;46.104;19.656;2023-01-20T00:36:20;8.82;;;4.35;;
55718;SDS011;41623;46.104;19.656;2023-01-20T00:38:46;8.65;;;4.10;;
55718;SDS011;41623;46.104;19.656;2023-01-20T00:41:14;6.38;;;4.07;;
55718;SDS011;41623;46.104;19.656;2023-01-20T00:43:40;12.60;;;7.25;;
55718;SDS011;41623;46.104;19.656;2023-01-20T00:46:07;7.43;;;5.28;;
55718;SDS011;41623;46.104;19.656;2023-01-20T00:48:33;8.38;;;4.10;;
55718;SDS011;41623;46.104;19.656;2023-01-20T00:51:00;9.50;;;4.15;;
55718;SDS011;41623;46.104;19.656;2023-01-20T00:53:26;9.93;;;4.50;;
55718;SDS011;41623;46.104;19.656;2023-01-20T00:55:52;5.00;;;2.70;;
55718;SDS011;41623;46.104;19.656;2023-01-20T00:58:18;9.65;;;4.03;;
55718;SDS011;41623;46.104;19.656;2023-01-20T01:00:48;4.45;;;3.75;;
55718;SDS011;41623;46.104;19.656;2023-01-20T01:03:14;9.05;;;3.38;;
55718;SDS011;41623;46.104;19.656;2023-01-20T01:05:40;4.93;;;3.28;;
55718;SDS011;41623;46.104;19.656;2023-01-20T01:08:07;6.93;;;2.97;;
55718;SDS011;41623;46.104;19.656;2023-01-20T01:10:33;6.28;;;3.70;;
55718;SDS011;41623;46.104;19.656;2023-01-20T01:12:59;6.40;;;3.65;;
55718;SDS011;41623;46.104;19.656;2023-01-20T01:15:26;4.95;;;3.17;;
55718;SDS011;41623;46.104;19.656;2023-01-20T01:17:52;5.90;;;3.30;;
55718;SDS011;41623;46.104;19.656;2023-01-20T01:20:18;6.18;;;3.42;;
55718;SDS011;41623;46.104;19.656;2023-01-20T01:22:46;8.77;;;3.50;;
55718;SDS011;41623;46.104;19.656;2023-01-20T01:25:12;5.05;;;3.55;;
55718;SDS011;41623;46.104;19.656;2023-01-20T01:27:38;6.63;;;4.32;;
55718;SDS011;41623;46.104;19.656;2023-01-20T01:30:04;5.25;;;3.53;;
55718;SDS011;41623;46.104;19.656;2023-01-20T01:32:30;5.55;;;3.88;;
55718;SDS011;41623;46.104;19.656;2023-01-20T01:34:56;5.70;;;3.85;;
55718;SDS011;41623;46.104;19.656;2023-01-20T01:37:23;5.47;;;3.83;;
55718;SDS011;41623;46.104;19.656;2023-01-20T01:39:49;6.82;;;3.72;;
55718;SDS011;41623;46.104;19.656;2023-01-20T01:42:19;9.23;;;4.35;;
55718;SDS011;41623;46.104;19.656;2023-01-20T01:47:29;8.20;;;3.38;;
55718;SDS011;41623;46.104;19.656;2023-01-20T01:49:56;4.55;;;3.85;;
55718;SDS011;41623;46.104;19.656;2023-01-20T01:52:22;9.75;;;3.72;;
55718;SDS011;41623;46.104;19.656;2023-01-20T01:54:49;7.35;;;3.72;;
55718;SDS011;41623;46.104;19.656;2023-01-20T01:57:15;5.93;;;4.00;;
55718;SDS011;41623;46.104;19.656;2023-01-20T01:59:41;10.20;;;3.28;;
55718;SDS011;41623;46.104;19.656;2023-01-20T02:02:08;8.15;;;3.75;;
55718;SDS011;41623;46.104;19.656;2023-01-20T02:04:34;5.45;;;3.75;;
55718;SDS011;41623;46.104;19.656;2023-01-20T02:07:12;5.32;;;3.00;;
55718;SDS011;41623;46.104;19.656;2023-01-20T02:09:42;5.97;;;3.47;;
55718;SDS011;41623;46.104;19.656;2023-01-20T02:12:09;5.13;;;3.55;;
55718;SDS011;41623;46.104;19.656;2023-01-20T02:14:38;5.55;;;3.35;;
55718;SDS011;41623;46.104;19.656;2023-01-20T02:32:55;6.65;;;3.13;;
55718;SDS011;41623;46.104;19.656;2023-01-20T02:35:27;5.47;;;2.67;;
55718;SDS011;41623;46.104;19.656;2023-01-20T02:38:18;5.78;;;3.30;;
55718;SDS011;41623;46.104;19.656;2023-01-20T02:40:45;7.03;;;3.67;;
55718;SDS011;41623;46.104;19.656;2023-01-20T02:55:54;5.82;;;4.13;;
55718;SDS011;41623;46.104;19.656;2023-01-20T02:58:29;10.80;;;4.53;;
55718;SDS011;41623;46.104;19.656;2023-01-20T03:00:58;12.85;;;3.35;;
55718;SDS011;41623;46.104;19.656;2023-01-20T03:03:30;6.20;;;3.28;;
55718;SDS011;41623;46.104;19.656;2023-01-20T03:05:57;5.78;;;3.35;;
55718;SDS011;41623;46.104;19.656;2023-01-20T03:08:26;4.40;;;2.60;;
55718;SDS011;41623;46.104;19.656;2023-01-20T03:10:53;5.72;;;2.78;;
55718;SDS011;41623;46.104;19.656;2023-01-20T03:15:57;4.93;;;3.17;;
55718;SDS011;41623;46.104;19.656;2023-01-20T03:18:24;4.28;;;3.22;;
55718;SDS011;41623;46.104;19.656;2023-01-20T03:20:50;7.35;;;3.65;;
55718;SDS011;41623;46.104;19.656;2023-01-20T03:23:16;5.82;;;3.33;;
55718;SDS011;41623;46.104;19.656;2023-01-20T03:25:42;5.28;;;3.50;;
55718;SDS011;41623;46.104;19.656;2023-01-20T03:28:10;7.25;;;3.83;;
55718;SDS011;41623;46.104;19.656;2023-01-20T03:30:37;8.15;;;3.72;;
55718;SDS011;41623;46.104;19.656;2023-01-20T03:33:03;6.13;;;3.22;;
55718;SDS011;41623;46.104;19.656;2023-01-20T03:35:29;4.68;;;3.42;;
55718;SDS011;41623;46.104;19.656;2023-01-20T03:37:55;5.05;;;2.72;;
55718;SDS011;41623;46.104;19.656;2023-01-20T03:40:23;8.43;;;3.08;;
55718;SDS011;41623;46.104;19.656;2023-01-20T03:43:00;7.10;;;3.70;;
55718;SDS011;41623;46.104;19.656;2023-01-20T03:45:54;5.50;;;3.65;;
55718;SDS011;41623;46.104;19.656;2023-01-20T03:48:27;3.88;;;2.78;;
55718;SDS011;41623;46.104;19.656;2023-01-20T03:50:55;6.28;;;4.38;;
55718;SDS011;41623;46.104;19.656;2023-01-20T03:56:08;4.07;;;3.13;;
55718;SDS011;41623;46.104;19.656;2023-01-20T03:58:38;8.93;;;3.45;;
55718;SDS011;41623;46.104;19.656;2023-01-20T04:01:06;3.50;;;2.70;;
55718;SDS011;41623;46.104;19.656;2023-01-20T04:03:34;7.20;;;3.60;;
55718;SDS011;41623;46.104;19.656;2023-01-20T04:06:02;9.02;;;3.25;;
55718;SDS011;41623;46.104;19.656;2023-01-20T04:08:30;6.30;;;3.50;;
55718;SDS011;41623;46.104;19.656;2023-01-20T04:10:58;7.28;;;3.85;;
55718;SDS011;41623;46.104;19.656;2023-01-20T04:13:26;7.88;;;3.53;;
55718;SDS011;41623;46.104;19.656;2023-01-20T04:15:52;3.25;;;2.55;;
55718;SDS011;41623;46.104;19.656;2023-01-20T04:18:20;4.93;;;3.42;;
55718;SDS011;41623;46.104;19.656;2023-01-20T04:20:47;4.43;;;3.80;;
55718;SDS011;41623;46.104;19.656;2023-01-20T04:24:15;5.85;;;2.97;;
55718;SDS011;41623;46.104;19.656;2023-01-20T04:26:09;8.60;;;3.90;;
55718;SDS011;41623;46.104;19.656;2023-01-20T04:28:35;5.95;;;2.95;;
55718;SDS011;41623;46.104;19.656;2023-01-20T04:31:01;12.10;;;4.13;;
55718;SDS011;41623;46.104;19.656;2023-01-20T04:33:27;3.50;;;2.78;;
55718;SDS011;41623;46.104;19.656;2023-01-20T04:35:53;5.35;;;4.22;;
55718;SDS011;41623;46.104;19.656;2023-01-20T04:38:19;5.55;;;3.75;;
55718;SDS011;41623;46.104;19.656;2023-01-20T04:40:45;8.48;;;3.63;;
55718;SDS011;41623;46.104;19.656;2023-01-20T04:43:11;4.30;;;2.88;;
55718;SDS011;41623;46.104;19.656;2023-01-20T04:45:39;3.38;;;2.55;;
55718;SDS011;41623;46.104;19.656;2023-01-20T04:48:06;3.80;;;2.72;;
55718;SDS011;41623;46.104;19.656;2023-01-20T04:50:36;5.22;;;3.13;;
55718;SDS011;41623;46.104;19.656;2023-01-20T04:53:02;4.38;;;2.40;;
55718;SDS011;41623;46.104;19.656;2023-01-20T04:55:28;5.40;;;3.20;;
55718;SDS011;41623;46.104;19.656;2023-01-20T04:57:54;5.32;;;3.25;;
55718;SDS011;41623;46.104;19.656;2023-01-20T05:00:20;5.63;;;3.55;;
55718;SDS011;41623;46.104;19.656;2023-01-20T05:02:46;7.30;;;3.35;;
55718;SDS011;41623;46.104;19.656;2023-01-20T05:05:12;3.92;;;2.10;;
55718;SDS011;41623;46.104;19.656;2023-01-20T05:07:39;3.88;;;2.95;;
55718;SDS011;41623;46.104;19.656;2023-01-20T05:10:05;8.38;;;3.90;;
55718;SDS011;41623;46.104;19.656;2023-01-20T05:12:31;6.68;;;4.00;;
55718;SDS011;41623;46.104;19.656;2023-01-20T05:14:57;5.22;;;3.13;;
55718;SDS011;41623;46.104;19.656;2023-01-20T05:17:23;5.43;;;3.42;;
55718;SDS011;41623;46.104;19.656;2023-01-20T05:19:49;8.20;;;3.67;;
55718;SDS011;41623;46.104;19.656;2023-01-20T05:22:15;8.13;;;4.07;;
55718;SDS011;41623;46.104;19.656;2023-01-20T05:24:41;6.25;;;3.67;;
55718;SDS011;41623;46.104;19.656;2023-01-20T05:27:07;4.72;;;3.35;;
55718;SDS011;41623;46.104;19.656;2023-01-20T05:29:33;4.43;;;3.03;;
55718;SDS011;41623;46.104;19.656;2023-01-20T05:32:00;8.50;;;4.50;;
55718;SDS011;41623;46.104;19.656;2023-01-20T05:34:26;6.18;;;3.28;;
55718;SDS011;41623;46.104;19.656;2023-01-20T05:36:52;5.72;;;3.60;;
55718;SDS011;41623;46.104;19.656;2023-01-20T05:39:19;6.90;;;4.18;;
55718;SDS011;41623;46.104;19.656;2023-01-20T05:41:45;8.57;;;4.35;;
55718;SDS011;41623;46.104;19.656;2023-01-20T05:44:11;4.88;;;3.28;;
55718;SDS011;41623;46.104;19.656;2023-01-20T05:46:38;6.28;;;3.65;;
55718;SDS011;41623;46.104;19.656;2023-01-20T05:49:04;7.47;;;4.07;;
55718;SDS011;41623;46.104;19.656;2023-01-20T05:51:30;4.50;;;2.83;;
55718;SDS011;41623;46.104;19.656;2023-01-20T05:53:56;9.77;;;3.63;;
55718;SDS011;41623;46.104;19.656;2023-01-20T05:56:22;7.60;;;4.50;;
55718;SDS011;41623;46.104;19.656;2023-01-20T05:58:52;4.40;;;3.70;;
55718;SDS011;41623;46.104;19.656;2023-01-20T06:01:18;8.10;;;3.67;;
55718;SDS011;41623;46.104;19.656;2023-01-20T06:03:45;7.72;;;4.70;;
55718;SDS011;41623;46.104;19.656;2023-01-20T06:06:11;12.90;;;4.47;;
55718;SDS011;41623;46.104;19.656;2023-01-20T06:08:42;8.55;;;4.28;;
55718;SDS011;41623;46.104;19.656;2023-01-20T06:11:09;10.32;;;5.05;;
55718;SDS011;41623;46.104;19.656;2023-01-20T06:13:35;8.90;;;3.60;;
55718;SDS011;41623;46.104;19.656;2023-01-20T06:16:03;6.50;;;4.28;;
55718;SDS011;41623;46.104;19.656;2023-01-20T06:18:29;4.40;;;3.75;;
55718;SDS011;41623;46.104;19.656;2023-01-20T06:20:56;5.65;;;3.75;;
55718;SDS011;41623;46.104;19.656;2023-01-20T06:23:25;4.53;;;2.90;;
55718;SDS011;41623;46.104;19.656;2023-01-20T06:26:02;7.00;;;3.88;;
55718;SDS011;41623;46.104;19.656;2023-01-20T06:28:28;7.72;;;4.40;;
55718;SDS011;41623;46.104;19.656;2023-01-20T06:30:58;11.32;;;3.60;;
55718;SDS011;41623;46.104;19.656;2023-01-20T06:33:24;6.47;;;3.53;;
55718;SDS011;41623;46.104;19.656;2023-01-20T06:35:54;8.57;;;3.90;;
55718;SDS011;41623;46.104;19.656;2023-01-20T06:38:21;12.15;;;3.90;;
55718;SDS011;41623;46.104;19.656;2023-01-20T06:40:47;7.53;;;4.25;;
55718;SDS011;41623;46.104;19.656;2023-01-20T06:43:13;6.57;;;3.72;;
55718;SDS011;41623;46.104;19.656;2023-01-20T06:45:39;12.35;;;3.72;;
55718;SDS011;41623;46.104;19.656;2023-01-20T06:48:05;16.20;;;4.25;;
55718;SDS011;41623;46.104;19.656;2023-01-20T06:50:31;7.38;;;4.55;;
55718;SDS011;41623;46.104;19.656;2023-01-20T06:52:57;7.30;;;3.17;;
55718;SDS011;41623;46.104;19.656;2023-01-20T06:55:25;9.73;;;3.92;;
55718;SDS011;41623;46.104;19.656;2023-01-20T06:57:51;5.85;;;3.90;;
55718;SDS011;41623;46.104;19.656;2023-01-20T07:00:18;7.97;;;3.65;;
55718;SDS011;41623;46.104;19.656;2023-01-20T07:02:46;7.55;;;3.10;;
55718;SDS011;41623;46.104;19.656;2023-01-20T07:05:13;5.38;;;3.55;;
55718;SDS011;41623;46.104;19.656;2023-01-20T07:07:42;10.95;;;4.95;;
55718;SDS011;41623;46.104;19.656;2023-01-20T07:10:09;14.57;;;6.72;;
55718;SDS011;41623;46.104;19.656;2023-01-20T07:12:35;6.80;;;4.53;;
55718;SDS011;41623;46.104;19.656;2023-01-20T07:15:02;8.77;;;4.68;;
55718;SDS011;41623;46.104;19.656;2023-01-20T07:17:28;13.40;;;6.70;;
55718;SDS011;41623;46.104;19.656;2023-01-20T07:19:54;13.32;;;5.03;;
55718;SDS011;41623;46.104;19.656;2023-01-20T07:22:20;9.60;;;3.80;;
55718;SDS011;41623;46.104;19.656;2023-01-20T07:24:46;7.50;;;4.45;;
55718;SDS011;41623;46.104;19.656;2023-01-20T07:27:12;6.90;;;4.05;;
55718;SDS011;41623;46.104;19.656;2023-01-20T07:29:39;6.75;;;3.80;;
55718;SDS011;41623;46.104;19.656;2023-01-20T07:32:05;6.30;;;4.05;;
55718;SDS011;41623;46.104;19.656;2023-01-20T07:34:32;8.60;;;4.68;;
55718;SDS011;41623;46.104;19.656;2023-01-20T07:36:58;7.80;;;4.72;;
55718;SDS011;41623;46.104;19.656;2023-01-20T07:39:26;6.63;;;3.97;;
55718;SDS011;41623;46.104;19.656;2023-01-20T07:41:52;11.52;;;4.78;;
55718;SDS011;41623;46.104;19.656;2023-01-20T07:44:18;12.98;;;5.78;;
55718;SDS011;41623;46.104;19.656;2023-01-20T07:46:44;6.55;;;3.88;;
55718;SDS011;41623;46.104;19.656;2023-01-20T07:49:12;10.82;;;5.63;;
55718;SDS011;41623;46.104;19.656;2023-01-20T07:51:38;11.65;;;5.25;;
55718;SDS011;41623;46.104;19.656;2023-01-20T07:54:04;6.03;;;3.28;;
55718;SDS011;41623;46.104;19.656;2023-01-20T07:56:31;7.93;;;4.25;;
55718;SDS011;41623;46.104;19.656;2023-01-20T07:58:57;6.53;;;3.95;;
55718;SDS011;41623;46.104;19.656;2023-01-20T08:01:27;9.27;;;4.45;;
55718;SDS011;41623;46.104;19.656;2023-01-20T08:03:53;7.22;;;4.13;;
55718;SDS011;41623;46.104;19.656;2023-01-20T08:06:21;6.03;;;3.72;;
55718;SDS011;41623;46.104;19.656;2023-01-20T08:08:47;9.68;;;4.07;;
55718;SDS011;41623;46.104;19.656;2023-01-20T08:11:15;10.00;;;4.85;;
55718;SDS011;41623;46.104;19.656;2023-01-20T08:13:41;12.15;;;5.60;;
55718;SDS011;41623;46.104;19.656;2023-01-20T08:16:09;11.43;;;6.20;;
55718;SDS011;41623;46.104;19.656;2023-01-20T08:18:36;14.98;;;5.95;;
55718;SDS011;41623;46.104;19.656;2023-01-20T08:21:02;11.25;;;6.57;;
55718;SDS011;41623;46.104;19.656;2023-01-20T08:23:31;16.48;;;7.70;;
55718;SDS011;41623;46.104;19.656;2023-01-20T08:26:00;12.73;;;5.50;;
55718;SDS011;41623;46.104;19.656;2023-01-20T08:28:27;9.57;;;5.03;;
55718;SDS011;41623;46.104;19.656;2023-01-20T08:30:53;10.07;;;5.82;;
55718;SDS011;41623;46.104;19.656;2023-01-20T08:33:20;12.82;;;6.70;;
55718;SDS011;41623;46.104;19.656;2023-01-20T08:35:46;7.30;;;5.13;;
55718;SDS011;41623;46.104;19.656;2023-01-20T08:38:12;8.52;;;4.95;;
55718;SDS011;41623;46.104;19.656;2023-01-20T08:40:42;12.60;;;4.50;;
55718;SDS011;41623;46.104;19.656;2023-01-20T08:43:08;9.38;;;5.10;;
55718;SDS011;41623;46.104;19.656;2023-01-20T08:45:34;13.25;;;6.20;;
55718;SDS011;41623;46.104;19.656;2023-01-20T08:48:00;11.27;;;5.07;;
55718;SDS011;41623;46.104;19.656;2023-01-20T08:50:26;11.15;;;5.63;;
55718;SDS011;41623;46.104;19.656;2023-01-20T08:52:52;8.55;;;5.50;;
55718;SDS011;41623;46.104;19.656;2023-01-20T08:55:19;9.35;;;5.78;;
55718;SDS011;41623;46.104;19.656;2023-01-20T08:57:45;9.98;;;6.20;;
55718;SDS011;41623;46.104;19.656;2023-01-20T09:00:12;10.15;;;6.55;;
55718;SDS011;41623;46.104;19.656;2023-01-20T09:02:38;8.30;;;4.97;;
55718;SDS011;41623;46.104;19.656;2023-01-20T09:05:05;9.13;;;5.50;;
55718;SDS011;41623;46.104;19.656;2023-01-20T09:07:32;7.82;;;4.75;;
55718;SDS011;41623;46.104;19.656;2023-01-20T09:09:58;7.15;;;4.85;;
55718;SDS011;41623;46.104;19.656;2023-01-20T09:12:24;8.63;;;4.05;;
55718;SDS011;41623;46.104;19.656;2023-01-20T09:14:51;11.48;;;5.63;;
55718;SDS011;41623;46.104;19.656;2023-01-20T09:17:17;12.52;;;5.53;;
55718;SDS011;41623;46.104;19.656;2023-01-20T09:19:44;12.45;;;5.45;;
55718;SDS011;41623;46.104;19.656;2023-01-20T09:22:10;9.95;;;5.30;;
55718;SDS011;41623;46.104;19.656;2023-01-20T09:24:37;10.88;;;5.70;;
55718;SDS011;41623;46.104;19.656;2023-01-20T09:27:04;12.23;;;6.38;;
55718;SDS011;41623;46.104;19.656;2023-01-20T09:29:30;8.63;;;4.93;;
55718;SDS011;41623;46.104;19.656;2023-01-20T09:31:56;7.20;;;4.38;;
55718;SDS011;41623;46.104;19.656;2023-01-20T09:34:22;15.48;;;6.07;;
55718;SDS011;41623;46.104;19.656;2023-01-20T09:36:53;10.18;;;5.07;;
55718;SDS011;41623;46.104;19.656;2023-01-20T09:39:21;8.38;;;4.88;;
55718;SDS011;41623;46.104;19.656;2023-01-20T09:42:16;7.75;;;5.05;;
55718;SDS011;41623;46.104;19.656;2023-01-20T09:45:13;9.88;;;4.03;;
55718;SDS011;41623;46.104;19.656;2023-01-20T09:47:49;8.23;;;5.10;;
55718;SDS011;41623;46.104;19.656;2023-01-20T09:50:24;27.20;;;13.07;;
55718;SDS011;41623;46.104;19.656;2023-01-20T09:55:51;26.38;;;11.88;;
55718;SDS011;41623;46.104;19.656;2023-01-20T09:58:36;18.40;;;9.00;;
55718;SDS011;41623;46.104;19.656;2023-01-20T10:01:19;17.35;;;9.48;;
55718;SDS011;41623;46.104;19.656;2023-01-20T10:06:47;13.88;;;7.82;;
55718;SDS011;41623;46.104;19.656;2023-01-20T10:11:52;12.60;;;5.55;;
55718;SDS011;41623;46.104;19.656;2023-01-20T10:14:22;6.88;;;4.90;;
55718;SDS011;41623;46.104;19.656;2023-01-20T10:16:54;14.10;;;6.80;;
55718;SDS011;41623;46.104;19.656;2023-01-20T10:19:32;21.85;;;7.80;;
55718;SDS011;41623;46.104;19.656;2023-01-20T10:22:08;12.32;;;6.65;;
55718;SDS011;41623;46.104;19.656;2023-01-20T10:24:36;22.27;;;10.48;;
55718;SDS011;41623;46.104;19.656;2023-01-20T10:27:03;29.88;;;11.63;;
55718;SDS011;41623;46.104;19.656;2023-01-20T10:29:49;26.70;;;12.35;;
55718;SDS011;41623;46.104;19.656;2023-01-20T10:32:36;23.13;;;11.13;;
55718;SDS011;41623;46.104;19.656;2023-01-20T10:35:06;17.95;;;9.60;;
55718;SDS011;41623;46.104;19.656;2023-01-20T10:37:34;18.52;;;9.77;;
55718;SDS011;41623;46.104;19.656;2023-01-20T10:40:16;18.20;;;8.73;;
55718;SDS011;41623;46.104;19.656;2023-01-20T10:42:47;17.65;;;7.82;;
55718;SDS011;41623;46.104;19.656;2023-01-20T10:45:18;20.67;;;8.75;;
55718;SDS011;41623;46.104;19.656;2023-01-20T10:47:50;21.67;;;8.73;;
55718;SDS011;41623;46.104;19.656;2023-01-20T10:55:25;21.70;;;9.73;;
55718;SDS011;41623;46.104;19.656;2023-01-20T10:57:55;17.17;;;10.32;;
55718;SDS011;41623;46.104;19.656;2023-01-20T11:00:27;14.43;;;7.80;;
55718;SDS011;41623;46.104;19.656;2023-01-20T11:02:54;25.65;;;10.93;;
55718;SDS011;41623;46.104;19.656;2023-01-20T11:05:23;16.77;;;7.00;;
55718;SDS011;41623;46.104;19.656;2023-01-20T11:07:51;15.88;;;6.90;;
55718;SDS011;41623;46.104;19.656;2023-01-20T11:10:21;14.40;;;7.43;;
55718;SDS011;41623;46.104;19.656;2023-01-20T11:12:50;13.38;;;7.65;;
55718;SDS011;41623;46.104;19.656;2023-01-20T11:15:18;18.00;;;6.90;;
55718;SDS011;41623;46.104;19.656;2023-01-20T11:17:44;15.18;;;7.65;;
55718;SDS011;41623;46.104;19.656;2023-01-20T11:20:18;46.38;;;16.65;;
55718;SDS011;41623;46.104;19.656;2023-01-20T11:22:45;53.30;;;17.83;;
55718;SDS011;41623;46.104;19.656;2023-01-20T11:25:31;29.48;;;13.90;;
55718;SDS011;41623;46.104;19.656;2023-01-20T11:27:57;29.73;;;11.88;;
55718;SDS011;41623;46.104;19.656;2023-01-20T11:30:30;15.02;;;6.85;;
55718;SDS011;41623;46.104;19.656;2023-01-20T11:33:19;14.85;;;5.68;;
55718;SDS011;41623;46.104;19.656;2023-01-20T11:36:05;13.25;;;5.55;;
55718;SDS011;41623;46.104;19.656;2023-01-20T11:38:42;9.82;;;4.90;;
55718;SDS011;41623;46.104;19.656;2023-01-20T11:41:24;17.40;;;5.75;;
55718;SDS011;41623;46.104;19.656;2023-01-20T11:43:52;9.93;;;5.97;;
55718;SDS011;41623;46.104;19.656;2023-01-20T11:46:21;10.25;;;5.18;;
55718;SDS011;41623;46.104;19.656;2023-01-20T11:48:48;18.48;;;7.53;;
55718;SDS011;41623;46.104;19.656;2023-01-20T11:51:21;12.57;;;8.02;;
55718;SDS011;41623;46.104;19.656;2023-01-20T11:53:53;5.78;;;4.40;;
55718;SDS011;41623;46.104;19.656;2023-01-20T11:56:31;35.15;;;12.93;;
55718;SDS011;41623;46.104;19.656;2023-01-20T11:59:02;20.60;;;8.45;;
55718;SDS011;41623;46.104;19.656;2023-01-20T12:01:29;13.38;;;6.60;;
55718;SDS011;41623;46.104;19.656;2023-01-20T12:08:49;11.77;;;5.18;;
55718;SDS011;41623;46.104;19.656;2023-01-20T12:11:17;8.93;;;4.63;;
55718;SDS011;41623;46.104;19.656;2023-01-20T12:14:00;5.38;;;3.17;;
55718;SDS011;41623;46.104;19.656;2023-01-20T12:16:52;8.07;;;4.10;;
55718;SDS011;41623;46.104;19.656;2023-01-20T12:19:21;8.20;;;3.95;;
55718;SDS011;41623;46.104;19.656;2023-01-20T12:21:51;8.60;;;4.18;;
55718;SDS011;41623;46.104;19.656;2023-01-20T12:26:47;6.72;;;4.03;;
55718;SDS011;41623;46.104;19.656;2023-01-20T12:31:42;8.23;;;3.92;;
55718;SDS011;41623;46.104;19.656;2023-01-20T12:34:28;7.18;;;4.18;;
55718;SDS011;41623;46.104;19.656;2023-01-20T12:42:41;9.20;;;4.82;;
55718;SDS011;41623;46.104;19.656;2023-01-20T12:48:03;9.00;;;4.20;;
55718;SDS011;41623;46.104;19.656;2023-01-20T12:50:46;2.60;;;2.10;;
55718;SDS011;41623;46.104;19.656;2023-01-20T13:04:28;7.43;;;3.30;;
55718;SDS011;41623;46.104;19.656;2023-01-20T13:12:23;9.63;;;3.63;;
55718;SDS011;41623;46.104;19.656;2023-01-20T13:15:08;7.63;;;4.70;;
55718;SDS011;41623;46.104;19.656;2023-01-20T13:17:40;16.95;;;7.68;;
55718;SDS011;41623;46.104;19.656;2023-01-20T13:20:20;10.80;;;4.97;;
55718;SDS011;41623;46.104;19.656;2023-01-20T13:22:48;7.65;;;3.08;;
55718;SDS011;41623;46.104;19.656;2023-01-20T13:25:16;3.92;;;2.00;;
55718;SDS011;41623;46.104;19.656;2023-01-20T13:27:44;6.32;;;2.63;;
55718;SDS011;41623;46.104;19.656;2023-01-20T13:30:56;12.90;;;5.70;;
55718;SDS011;41623;46.104;19.656;2023-01-20T13:33:03;22.35;;;7.43;;
55718;SDS011;41623;46.104;19.656;2023-01-20T13:38:00;2.15;;;1.88;;
55718;SDS011;41623;46.104;19.656;2023-01-20T13:56:45;9.70;;;5.25;;
55718;SDS011;41623;46.104;19.656;2023-01-20T13:59:11;9.52;;;3.72;;
55718;SDS011;41623;46.104;19.656;2023-01-20T14:01:38;6.90;;;3.72;;
55718;SDS011;41623;46.104;19.656;2023-01-20T14:04:05;47.83;;;14.27;;
55718;SDS011;41623;46.104;19.656;2023-01-20T14:06:31;33.42;;;11.68;;
55718;SDS011;41623;46.104;19.656;2023-01-20T14:08:59;31.67;;;13.00;;
55718;SDS011;41623;46.104;19.656;2023-01-20T14:11:26;20.00;;;8.65;;
55718;SDS011;41623;46.104;19.656;2023-01-20T14:14:00;15.30;;;8.30;;
55718;SDS011;41623;46.104;19.656;2023-01-20T14:19:15;10.75;;;4.72;;
55718;SDS011;41623;46.104;19.656;2023-01-20T14:21:43;26.83;;;10.75;;
55718;SDS011;41623;46.104;19.656;2023-01-20T14:29:35;19.63;;;7.95;;
55718;SDS011;41623;46.104;19.656;2023-01-20T14:32:06;10.85;;;4.80;;
55718;SDS011;41623;46.104;19.656;2023-01-20T14:34:33;11.05;;;5.22;;
55718;SDS011;41623;46.104;19.656;2023-01-20T14:37:10;16.85;;;6.68;;
55718;SDS011;41623;46.104;19.656;2023-01-20T14:39:41;9.38;;;5.75;;
55718;SDS011;41623;46.104;19.656;2023-01-20T14:42:15;19.35;;;7.03;;
55718;SDS011;41623;46.104;19.656;2023-01-20T14:44:42;5.82;;;3.17;;
55718;SDS011;41623;46.104;19.656;2023-01-20T14:47:11;12.45;;;5.45;;
55718;SDS011;41623;46.104;19.656;2023-01-20T14:49:37;26.42;;;5.88;;
55718;SDS011;41623;46.104;19.656;2023-01-20T14:52:04;4.32;;;2.58;;
55718;SDS011;41623;46.104;19.656;2023-01-20T14:54:34;14.07;;;4.93;;
55718;SDS011;41623;46.104;19.656;2023-01-20T14:57:20;8.90;;;4.78;;
55718;SDS011;41623;46.104;19.656;2023-01-20T14:59:47;8.18;;;4.10;;
55718;SDS011;41623;46.104;19.656;2023-01-20T15:02:26;7.82;;;4.70;;
55718;SDS011;41623;46.104;19.656;2023-01-20T15:04:52;13.43;;;4.75;;
55718;SDS011;41623;46.104;19.656;2023-01-20T15:07:19;5.72;;;3.42;;
55718;SDS011;41623;46.104;19.656;2023-01-20T15:10:05;12.00;;;5.07;;
55718;SDS011;41623;46.104;19.656;2023-01-20T15:20:30;4.38;;;3.28;;
55718;SDS011;41623;46.104;19.656;2023-01-20T15:22:57;9.82;;;3.78;;
55718;SDS011;41623;46.104;19.656;2023-01-20T15:25:24;9.98;;;4.90;;
55718;SDS011;41623;46.104;19.656;2023-01-20T15:27:51;4.95;;;2.78;;
55718;SDS011;41623;46.104;19.656;2023-01-20T15:30:19;9.48;;;4.22;;
55718;SDS011;41623;46.104;19.656;2023-01-20T15:32:48;10.35;;;3.25;;
55718;SDS011;41623;46.104;19.656;2023-01-20T15:35:15;4.53;;;3.17;;
55718;SDS011;41623;46.104;19.656;2023-01-20T15:37:44;8.13;;;2.28;;
55718;SDS011;41623;46.104;19.656;2023-01-20T15:40:17;12.57;;;4.90;;
55718;SDS011;41623;46.104;19.656;2023-01-20T15:42:43;10.27;;;5.93;;
55718;SDS011;41623;46.104;19.656;2023-01-20T15:45:13;5.75;;;3.78;;
55718;SDS011;41623;46.104;19.656;2023-01-20T15:47:40;7.45;;;3.97;;
55718;SDS011;41623;46.104;19.656;2023-01-20T15:50:19;9.55;;;5.40;;
55718;SDS011;41623;46.104;19.656;2023-01-20T15:52:46;25.52;;;7.03;;
55718;SDS011;41623;46.104;19.656;2023-01-20T15:55:14;25.15;;;9.88;;
55718;SDS011;41623;46.104;19.656;2023-01-20T15:57:41;23.30;;;9.10;;
55718;SDS011;41623;46.104;19.656;2023-01-20T16:00:14;19.38;;;8.60;;
55718;SDS011;41623;46.104;19.656;2023-01-20T16:02:40;7.97;;;5.40;;
55718;SDS011;41623;46.104;19.656;2023-01-20T16:05:06;8.52;;;5.85;;
55718;SDS011;41623;46.104;19.656;2023-01-20T16:07:33;12.40;;;5.97;;
55718;SDS011;41623;46.104;19.656;2023-01-20T16:09:59;12.13;;;6.05;;
55718;SDS011;41623;46.104;19.656;2023-01-20T16:12:25;10.18;;;5.03;;
55718;SDS011;41623;46.104;19.656;2023-01-20T16:14:51;7.63;;;4.55;;
55718;SDS011;41623;46.104;19.656;2023-01-20T16:17:18;12.23;;;5.82;;
55718;SDS011;41623;46.104;19.656;2023-01-20T16:19:45;28.17;;;7.43;;
55718;SDS011;41623;46.104;19.656;2023-01-20T16:22:11;13.18;;;5.75;;
55718;SDS011;41623;46.104;19.656;2023-01-20T16:24:38;10.73;;;5.43;;
55718;SDS011;41623;46.104;19.656;2023-01-20T16:27:11;10.73;;;6.07;;
55718;SDS011;41623;46.104;19.656;2023-01-20T16:29:38;25.95;;;7.88;;
55718;SDS011;41623;46.104;19.656;2023-01-20T16:32:04;8.98;;;4.47;;
55718;SDS011;41623;46.104;19.656;2023-01-20T16:34:30;10.40;;;6.13;;
55718;SDS011;41623;46.104;19.656;2023-01-20T16:36:56;36.88;;;11.55;;
55718;SDS011;41623;46.104;19.656;2023-01-20T16:39:22;18.85;;;6.45;;